Terminal Aerodrome Forecast
Issued by NWS

Home | Current Version | Previous Version | Text Only | Print | Product List | Glossary On
Versions: 1 2 3 4 5 6 7 8 9 10 11 12 13 14 15 16
557
FTPA31 PHFO 252343
TAFHOG
TAF
PHOG 252343Z 2600/2624 02010KT P6SM FEW035 SCT050 OVC200
     FM260500 12004KT P6SM OVC200
     FM262100 06012KT P6SM FEW035 SCT050 OVC200
      AMD LTD TO VIS AND WIND 2609/2616=

USA.gov is the U.S. government's official web portal to all federal, state and local government web resources and services.